Observations for PRESTWICK CIV NAVY, United Kingdom (EGPK)

EGPK 242020Z 22005KT 9999 SCT030 09/06 Q1005
EGPK 241950Z 22007KT 9999 FEW020 SCT035 09/06 Q1005 
EGPK 241920Z 22007KT 9999 FEW020 SCT035 09/06 Q1005 
EGPK 241850Z 22009KT 9999 FEW020 SCT035 09/07 Q1005 
EGPK 241820Z 22007KT 9999 FEW020 SCT035 09/07 Q1005 
EGPK 241750Z 22006KT 9999 VCSH FEW020 SCT035 09/07 Q1005
EGPK 241720Z 22008KT 9999 VCSH FEW018 SCT035 09/07 Q1005
EGPK 241650Z 23007KT 9999 7000S VCSH FEW010 SCT020 BKN035 10/07 Q1005   
EGPK 241620Z 23005KT 8000 SCT020 SCT035 09/07 Q1005 
EGPK 241550Z 22006KT 8000 -RA FEW007 SCT020 BKN035 09/08 Q1006  
EGPK 241520Z 27011KT 7000 -RA FEW007 SCT020 BKN035 09/07 Q1006  
EGPK 241450Z 24010KT 9999 FEW020 SCT030 BKN044 11/07 Q1006  
EGPK 241420Z 23013KT 9999 FEW020 SCT030 BKN044 12/06 Q1006  
EGPK 241350Z 24013KT 9999 FEW020 SCT030 BKN044 13/06 Q1006  
EGPK 241320Z 23013KT 9999 FEW020 SCT030 BKN044 12/06 Q1007  
EGPK 241250Z 22013KT 9999 FEW020 SCT030 12/06 Q1007 
EGPK 241220Z 22012KT 9999 FEW020 SCT030 12/07 Q1008 
EGPK 241150Z 22015KT 9999 FEW020 SCT030 12/06 Q1008 
EGPK 241120Z 22015KT 9999 FEW020 SCT030 11/07 Q1008 
EGPK 241050Z 23014KT 9999 FEW020 SCT030 BKN044 10/07 Q1008  
EGPK 241020Z 22015KT 9999 FEW020 SCT030 BKN044 10/07 Q1009  
EGPK 240950Z 22015KT 9999 FEW020 SCT030 11/07 Q1008 
EGPK 240920Z 22013KT 9999 FEW020 SCT030 10/07 Q1009 
EGPK 240850Z 22014KT 9999 FEW020 SCT030 10/07 Q1009 
EGPK 240820Z 22013KT 9999 FEW020 SCT030 10/07 Q1009 
EGPK 240750Z 23014KT 9999 FEW015 SCT025 09/07 Q1009 
EGPK 240720Z 24014KT 9999 FEW015 SCT025 09/06 Q1009 
EGPK 240650Z 23016KT 9999 FEW015 SCT025 09/06 Q1009 
EGPK 240620Z 23011KT 9999 FEW015 SCT030 09/06 Q1009 
EGPK 240550Z 24012KT 9999 FEW015 SCT030 08/06 Q1009 
EGPK 240450Z 24014KT 9000 SCT025 08/05 Q1008
EGPK 240350Z 23011KT 9000 SCT025 08/06 Q1008
EGPK 240250Z 23011KT 9000 SCT025 08/06 Q1008
EGPK 240150Z 24015KT 9000 SCT025 08/06 Q1008
EGPK 240050Z 23017KT 9000 -RA SCT025 09/07 Q1007
EGPK 232350Z 22010KT 9000 VCSH SCT025 09/07 Q1007   
EGPK 232320Z 22011KT 9999 SCT030 09/06 Q1007
EGPK 232250Z 23007KT 9999 -RA SCT030 09/07 Q1008
EGPK 232220Z 25015KT 9999 SCT030 09/07 Q1008
EGPK 232150Z 24017KT 9999 SCT030 09/06 Q1007
EGPK 232120Z 23019KT 9999 SCT030 09/06 Q1007
EGPK 232050Z 24022KT 9999 SCT030 09/06 Q1006
EGPK 232020Z 25016KT 9999 VCSH SCT017 BKN024 09/06 Q1007
EGPK 231950Z 25020G32KT 9999 VCSH SCT017 BKN024 09/06 Q1006